sensor_id;sensor_type;location;lat;lon;timestamp;P1;durP1;ratioP1;P2;durP2;ratioP2
50681;SDS011;36779;52.168;20.878;2022-07-06T00:02:10;6.30;;;5.70;;
50681;SDS011;36779;52.168;20.878;2022-07-06T00:04:59;6.10;;;5.50;;
50681;SDS011;36779;52.168;20.878;2022-07-06T00:07:49;5.50;;;4.90;;
50681;SDS011;36779;52.168;20.878;2022-07-06T00:10:37;6.70;;;4.70;;
50681;SDS011;36779;52.168;20.878;2022-07-06T00:13:26;5.70;;;4.60;;
50681;SDS011;36779;52.168;20.878;2022-07-06T00:16:16;7.70;;;5.20;;
50681;SDS011;36779;52.168;20.878;2022-07-06T00:19:06;8.30;;;5.00;;
50681;SDS011;36779;52.168;20.878;2022-07-06T00:21:55;7.80;;;4.70;;
50681;SDS011;36779;52.168;20.878;2022-07-06T00:24:44;5.30;;;4.30;;
50681;SDS011;36779;52.168;20.878;2022-07-06T00:27:33;6.40;;;4.80;;
50681;SDS011;36779;52.168;20.878;2022-07-06T00:30:23;5.00;;;4.50;;
50681;SDS011;36779;52.168;20.878;2022-07-06T00:33:16;8.20;;;5.10;;
50681;SDS011;36779;52.168;20.878;2022-07-06T00:36:05;6.70;;;6.00;;
50681;SDS011;36779;52.168;20.878;2022-07-06T00:38:47;5.60;;;5.10;;
50681;SDS011;36779;52.168;20.878;2022-07-06T00:41:36;7.20;;;5.40;;
50681;SDS011;36779;52.168;20.878;2022-07-06T00:44:25;5.20;;;4.20;;
50681;SDS011;36779;52.168;20.878;2022-07-06T00:47:14;7.70;;;4.70;;
50681;SDS011;36779;52.168;20.878;2022-07-06T00:50:03;7.10;;;4.50;;
50681;SDS011;36779;52.168;20.878;2022-07-06T00:53:05;5.80;;;5.20;;
50681;SDS011;36779;52.168;20.878;2022-07-06T00:55:54;7.30;;;5.10;;
50681;SDS011;36779;52.168;20.878;2022-07-06T00:58:44;6.20;;;4.50;;
50681;SDS011;36779;52.168;20.878;2022-07-06T01:01:34;5.00;;;4.50;;
50681;SDS011;36779;52.168;20.878;2022-07-06T01:04:26;5.70;;;4.90;;
50681;SDS011;36779;52.168;20.878;2022-07-06T01:07:15;5.20;;;4.70;;
50681;SDS011;36779;52.168;20.878;2022-07-06T01:10:10;7.60;;;5.00;;
50681;SDS011;36779;52.168;20.878;2022-07-06T01:13:00;5.80;;;5.00;;
50681;SDS011;36779;52.168;20.878;2022-07-06T01:15:50;7.60;;;5.50;;
50681;SDS011;36779;52.168;20.878;2022-07-06T01:18:40;8.20;;;5.20;;
50681;SDS011;36779;52.168;20.878;2022-07-06T01:21:29;8.10;;;5.40;;
50681;SDS011;36779;52.168;20.878;2022-07-06T01:24:22;7.20;;;4.70;;
50681;SDS011;36779;52.168;20.878;2022-07-06T01:27:11;10.00;;;4.80;;
50681;SDS011;36779;52.168;20.878;2022-07-06T01:30:00;5.50;;;4.80;;
50681;SDS011;36779;52.168;20.878;2022-07-06T01:32:53;6.10;;;5.00;;
50681;SDS011;36779;52.168;20.878;2022-07-06T01:35:44;6.20;;;5.10;;
50681;SDS011;36779;52.168;20.878;2022-07-06T01:38:37;6.50;;;5.20;;
50681;SDS011;36779;52.168;20.878;2022-07-06T01:41:31;4.90;;;4.40;;
50681;SDS011;36779;52.168;20.878;2022-07-06T01:44:20;5.30;;;4.40;;
50681;SDS011;36779;52.168;20.878;2022-07-06T01:47:10;6.60;;;4.40;;
50681;SDS011;36779;52.168;20.878;2022-07-06T01:50:01;6.40;;;4.60;;
50681;SDS011;36779;52.168;20.878;2022-07-06T01:52:53;7.10;;;4.70;;
50681;SDS011;36779;52.168;20.878;2022-07-06T01:55:43;6.50;;;5.00;;
50681;SDS011;36779;52.168;20.878;2022-07-06T01:58:35;6.20;;;4.20;;
50681;SDS011;36779;52.168;20.878;2022-07-06T02:01:26;6.40;;;3.90;;
50681;SDS011;36779;52.168;20.878;2022-07-06T02:04:15;7.00;;;4.50;;
50681;SDS011;36779;52.168;20.878;2022-07-06T02:07:08;6.10;;;3.90;;
50681;SDS011;36779;52.168;20.878;2022-07-06T02:09:57;7.30;;;4.40;;
50681;SDS011;36779;52.168;20.878;2022-07-06T02:12:46;7.00;;;4.30;;
50681;SDS011;36779;52.168;20.878;2022-07-06T02:15:34;4.90;;;3.90;;
50681;SDS011;36779;52.168;20.878;2022-07-06T02:18:24;5.30;;;3.60;;
50681;SDS011;36779;52.168;20.878;2022-07-06T02:21:14;7.60;;;4.30;;
50681;SDS011;36779;52.168;20.878;2022-07-06T02:24:04;7.50;;;4.80;;
50681;SDS011;36779;52.168;20.878;2022-07-06T02:26:53;8.90;;;5.20;;
50681;SDS011;36779;52.168;20.878;2022-07-06T02:29:46;6.20;;;4.20;;
50681;SDS011;36779;52.168;20.878;2022-07-06T02:32:34;11.00;;;4.70;;
50681;SDS011;36779;52.168;20.878;2022-07-06T02:35:06;5.80;;;4.60;;
50681;SDS011;36779;52.168;20.878;2022-07-06T02:37:57;8.30;;;5.00;;
50681;SDS011;36779;52.168;20.878;2022-07-06T02:40:48;12.00;;;5.30;;
50681;SDS011;36779;52.168;20.878;2022-07-06T02:43:38;6.60;;;5.00;;
50681;SDS011;36779;52.168;20.878;2022-07-06T02:46:28;7.70;;;4.70;;
50681;SDS011;36779;52.168;20.878;2022-07-06T02:52:11;8.70;;;4.50;;
50681;SDS011;36779;52.168;20.878;2022-07-06T02:55:00;7.30;;;4.70;;
50681;SDS011;36779;52.168;20.878;2022-07-06T02:57:50;7.50;;;4.80;;
50681;SDS011;36779;52.168;20.878;2022-07-06T03:00:39;10.20;;;5.40;;
50681;SDS011;36779;52.168;20.878;2022-07-06T03:03:29;8.30;;;4.90;;
50681;SDS011;36779;52.168;20.878;2022-07-06T03:06:18;7.40;;;4.70;;
50681;SDS011;36779;52.168;20.878;2022-07-06T03:09:07;7.20;;;4.60;;
50681;SDS011;36779;52.168;20.878;2022-07-06T03:11:56;9.10;;;4.50;;
50681;SDS011;36779;52.168;20.878;2022-07-06T03:14:46;7.30;;;5.00;;
50681;SDS011;36779;52.168;20.878;2022-07-06T03:17:36;7.90;;;5.40;;
50681;SDS011;36779;52.168;20.878;2022-07-06T03:20:25;6.70;;;5.00;;
50681;SDS011;36779;52.168;20.878;2022-07-06T03:23:14;9.10;;;4.80;;
50681;SDS011;36779;52.168;20.878;2022-07-06T03:26:07;9.30;;;4.80;;
50681;SDS011;36779;52.168;20.878;2022-07-06T03:28:58;5.90;;;4.30;;
50681;SDS011;36779;52.168;20.878;2022-07-06T03:31:48;6.90;;;4.20;;
50681;SDS011;36779;52.168;20.878;2022-07-06T03:34:38;8.40;;;4.90;;
50681;SDS011;36779;52.168;20.878;2022-07-06T03:37:27;7.50;;;5.10;;
50681;SDS011;36779;52.168;20.878;2022-07-06T03:43:04;7.60;;;5.20;;
50681;SDS011;36779;52.168;20.878;2022-07-06T03:45:52;9.30;;;5.00;;
50681;SDS011;36779;52.168;20.878;2022-07-06T03:48:42;5.40;;;4.30;;
50681;SDS011;36779;52.168;20.878;2022-07-06T03:51:39;10.90;;;5.10;;
50681;SDS011;36779;52.168;20.878;2022-07-06T03:54:29;8.40;;;4.90;;
50681;SDS011;36779;52.168;20.878;2022-07-06T03:57:19;7.10;;;5.30;;
50681;SDS011;36779;52.168;20.878;2022-07-06T04:00:10;8.20;;;5.20;;
50681;SDS011;36779;52.168;20.878;2022-07-06T04:03:03;6.60;;;5.00;;
50681;SDS011;36779;52.168;20.878;2022-07-06T04:05:53;9.20;;;5.60;;
50681;SDS011;36779;52.168;20.878;2022-07-06T04:08:43;7.90;;;4.70;;
50681;SDS011;36779;52.168;20.878;2022-07-06T04:11:33;7.90;;;5.00;;
50681;SDS011;36779;52.168;20.878;2022-07-06T04:14:22;8.20;;;4.60;;
50681;SDS011;36779;52.168;20.878;2022-07-06T04:17:12;6.50;;;4.60;;
50681;SDS011;36779;52.168;20.878;2022-07-06T04:20:19;6.20;;;4.40;;
50681;SDS011;36779;52.168;20.878;2022-07-06T04:23:10;8.10;;;4.40;;
50681;SDS011;36779;52.168;20.878;2022-07-06T04:25:59;7.20;;;4.60;;
50681;SDS011;36779;52.168;20.878;2022-07-06T04:28:51;7.40;;;4.00;;
50681;SDS011;36779;52.168;20.878;2022-07-06T04:31:40;5.50;;;3.60;;
50681;SDS011;36779;52.168;20.878;2022-07-06T04:34:30;4.90;;;3.60;;
50681;SDS011;36779;52.168;20.878;2022-07-06T04:37:19;4.40;;;3.60;;
50681;SDS011;36779;52.168;20.878;2022-07-06T04:40:10;4.00;;;3.60;;
50681;SDS011;36779;52.168;20.878;2022-07-06T04:43:06;5.70;;;3.80;;
50681;SDS011;36779;52.168;20.878;2022-07-06T04:45:55;6.50;;;4.70;;
50681;SDS011;36779;52.168;20.878;2022-07-06T04:48:44;4.90;;;4.20;;
50681;SDS011;36779;52.168;20.878;2022-07-06T04:51:32;9.70;;;4.80;;
50681;SDS011;36779;52.168;20.878;2022-07-06T04:54:21;5.00;;;4.20;;
50681;SDS011;36779;52.168;20.878;2022-07-06T04:57:13;7.10;;;4.00;;
50681;SDS011;36779;52.168;20.878;2022-07-06T05:00:06;5.60;;;4.90;;
50681;SDS011;36779;52.168;20.878;2022-07-06T05:02:57;7.40;;;4.70;;
50681;SDS011;36779;52.168;20.878;2022-07-06T05:05:48;7.80;;;4.20;;
50681;SDS011;36779;52.168;20.878;2022-07-06T05:08:41;5.70;;;4.60;;
50681;SDS011;36779;52.168;20.878;2022-07-06T05:11:30;8.60;;;4.50;;
50681;SDS011;36779;52.168;20.878;2022-07-06T05:14:20;6.70;;;5.60;;
50681;SDS011;36779;52.168;20.878;2022-07-06T05:17:09;11.20;;;5.60;;
50681;SDS011;36779;52.168;20.878;2022-07-06T05:19:59;7.10;;;5.50;;
50681;SDS011;36779;52.168;20.878;2022-07-06T05:22:47;6.50;;;5.00;;
50681;SDS011;36779;52.168;20.878;2022-07-06T05:25:37;7.60;;;4.70;;
50681;SDS011;36779;52.168;20.878;2022-07-06T05:28:29;5.30;;;4.70;;
50681;SDS011;36779;52.168;20.878;2022-07-06T05:31:25;6.30;;;4.50;;
50681;SDS011;36779;52.168;20.878;2022-07-06T05:34:14;4.90;;;4.40;;
50681;SDS011;36779;52.168;20.878;2022-07-06T05:37:08;6.80;;;5.40;;
50681;SDS011;36779;52.168;20.878;2022-07-06T05:39:57;5.70;;;4.70;;
50681;SDS011;36779;52.168;20.878;2022-07-06T05:42:46;8.70;;;5.10;;
50681;SDS011;36779;52.168;20.878;2022-07-06T05:45:35;5.70;;;4.20;;
50681;SDS011;36779;52.168;20.878;2022-07-06T05:48:24;4.90;;;3.70;;
50681;SDS011;36779;52.168;20.878;2022-07-06T05:51:32;3.90;;;3.10;;
50681;SDS011;36779;52.168;20.878;2022-07-06T05:54:00;5.00;;;3.20;;
50681;SDS011;36779;52.168;20.878;2022-07-06T05:56:51;6.10;;;3.60;;
50681;SDS011;36779;52.168;20.878;2022-07-06T05:59:40;4.50;;;3.20;;
50681;SDS011;36779;52.168;20.878;2022-07-06T06:02:36;3.90;;;3.10;;
50681;SDS011;36779;52.168;20.878;2022-07-06T06:05:26;4.80;;;3.50;;
50681;SDS011;36779;52.168;20.878;2022-07-06T06:08:16;6.50;;;3.50;;
50681;SDS011;36779;52.168;20.878;2022-07-06T06:11:05;4.30;;;3.80;;
50681;SDS011;36779;52.168;20.878;2022-07-06T06:13:58;8.00;;;4.50;;
50681;SDS011;36779;52.168;20.878;2022-07-06T06:16:47;7.50;;;5.90;;
50681;SDS011;36779;52.168;20.878;2022-07-06T06:19:36;10.80;;;7.60;;
50681;SDS011;36779;52.168;20.878;2022-07-06T06:22:25;9.00;;;7.20;;
50681;SDS011;36779;52.168;20.878;2022-07-06T06:25:15;7.30;;;6.30;;
50681;SDS011;36779;52.168;20.878;2022-07-06T06:28:07;6.50;;;5.40;;
50681;SDS011;36779;52.168;20.878;2022-07-06T06:30:57;8.40;;;5.80;;
50681;SDS011;36779;52.168;20.878;2022-07-06T06:33:47;6.80;;;5.50;;
50681;SDS011;36779;52.168;20.878;2022-07-06T06:36:36;9.60;;;5.30;;
50681;SDS011;36779;52.168;20.878;2022-07-06T06:39:26;6.90;;;4.60;;
50681;SDS011;36779;52.168;20.878;2022-07-06T06:42:15;4.30;;;3.70;;
50681;SDS011;36779;52.168;20.878;2022-07-06T06:45:05;4.50;;;4.10;;
50681;SDS011;36779;52.168;20.878;2022-07-06T06:47:55;5.80;;;4.00;;
50681;SDS011;36779;52.168;20.878;2022-07-06T06:50:44;5.20;;;4.30;;
50681;SDS011;36779;52.168;20.878;2022-07-06T06:53:34;6.30;;;4.40;;
50681;SDS011;36779;52.168;20.878;2022-07-06T06:56:27;6.10;;;4.70;;
50681;SDS011;36779;52.168;20.878;2022-07-06T06:59:16;6.40;;;4.00;;
50681;SDS011;36779;52.168;20.878;2022-07-06T07:02:07;6.10;;;4.10;;
50681;SDS011;36779;52.168;20.878;2022-07-06T07:04:56;4.90;;;3.40;;
50681;SDS011;36779;52.168;20.878;2022-07-06T07:07:45;8.90;;;4.40;;
50681;SDS011;36779;52.168;20.878;2022-07-06T07:10:34;5.50;;;4.10;;
50681;SDS011;36779;52.168;20.878;2022-07-06T07:13:25;5.00;;;3.60;;
50681;SDS011;36779;52.168;20.878;2022-07-06T07:16:13;7.30;;;2.90;;
50681;SDS011;36779;52.168;20.878;2022-07-06T07:19:03;3.80;;;2.60;;
50681;SDS011;36779;52.168;20.878;2022-07-06T07:21:54;4.10;;;2.80;;
50681;SDS011;36779;52.168;20.878;2022-07-06T07:24:43;3.60;;;2.30;;
50681;SDS011;36779;52.168;20.878;2022-07-06T07:27:32;4.70;;;3.00;;
50681;SDS011;36779;52.168;20.878;2022-07-06T07:30:21;5.60;;;3.10;;
50681;SDS011;36779;52.168;20.878;2022-07-06T07:33:06;3.80;;;3.00;;
50681;SDS011;36779;52.168;20.878;2022-07-06T07:35:59;3.50;;;2.40;;
50681;SDS011;36779;52.168;20.878;2022-07-06T07:38:48;4.10;;;2.90;;
50681;SDS011;36779;52.168;20.878;2022-07-06T07:41:37;3.70;;;2.50;;
50681;SDS011;36779;52.168;20.878;2022-07-06T07:44:27;4.90;;;2.70;;
50681;SDS011;36779;52.168;20.878;2022-07-06T07:47:15;3.20;;;2.40;;
50681;SDS011;36779;52.168;20.878;2022-07-06T07:50:05;7.20;;;2.60;;
50681;SDS011;36779;52.168;20.878;2022-07-06T07:52:55;5.90;;;2.30;;
50681;SDS011;36779;52.168;20.878;2022-07-06T07:55:44;6.00;;;2.20;;
50681;SDS011;36779;52.168;20.878;2022-07-06T07:58:35;3.00;;;1.50;;
50681;SDS011;36779;52.168;20.878;2022-07-06T08:01:25;4.10;;;2.10;;
50681;SDS011;36779;52.168;20.878;2022-07-06T08:04:16;3.40;;;1.70;;
50681;SDS011;36779;52.168;20.878;2022-07-06T08:07:09;3.10;;;1.90;;
50681;SDS011;36779;52.168;20.878;2022-07-06T08:09:58;3.20;;;1.80;;
50681;SDS011;36779;52.168;20.878;2022-07-06T08:12:47;4.40;;;1.70;;
50681;SDS011;36779;52.168;20.878;2022-07-06T08:15:35;3.30;;;1.60;;
50681;SDS011;36779;52.168;20.878;2022-07-06T08:18:25;5.00;;;1.50;;
50681;SDS011;36779;52.168;20.878;2022-07-06T08:21:15;3.30;;;1.50;;
50681;SDS011;36779;52.168;20.878;2022-07-06T08:24:15;2.90;;;1.30;;
50681;SDS011;36779;52.168;20.878;2022-07-06T08:26:58;5.10;;;1.40;;
50681;SDS011;36779;52.168;20.878;2022-07-06T08:29:38;5.10;;;1.50;;
50681;SDS011;36779;52.168;20.878;2022-07-06T08:32:27;1.70;;;1.10;;
50681;SDS011;36779;52.168;20.878;2022-07-06T08:35:36;2.90;;;1.50;;
50681;SDS011;36779;52.168;20.878;2022-07-06T08:38:26;2.30;;;1.30;;
50681;SDS011;36779;52.168;20.878;2022-07-06T08:41:16;3.50;;;1.20;;
50681;SDS011;36779;52.168;20.878;2022-07-06T08:44:13;3.20;;;1.10;;
50681;SDS011;36779;52.168;20.878;2022-07-06T08:47:04;1.60;;;1.10;;
50681;SDS011;36779;52.168;20.878;2022-07-06T08:49:57;2.10;;;1.20;;
50681;SDS011;36779;52.168;20.878;2022-07-06T08:52:46;2.70;;;1.00;;
50681;SDS011;36779;52.168;20.878;2022-07-06T08:55:36;2.30;;;1.10;;
50681;SDS011;36779;52.168;20.878;2022-07-06T08:58:29;1.80;;;1.00;;
50681;SDS011;36779;52.168;20.878;2022-07-06T09:01:19;1.20;;;1.00;;
50681;SDS011;36779;52.168;20.878;2022-07-06T09:04:13;1.70;;;0.90;;
50681;SDS011;36779;52.168;20.878;2022-07-06T09:07:06;5.10;;;1.10;;
50681;SDS011;36779;52.168;20.878;2022-07-06T09:09:50;5.30;;;1.20;;
50681;SDS011;36779;52.168;20.878;2022-07-06T09:12:41;1.80;;;0.90;;
50681;SDS011;36779;52.168;20.878;2022-07-06T09:15:30;3.50;;;0.90;;
50681;SDS011;36779;52.168;20.878;2022-07-06T09:18:21;1.90;;;0.60;;
50681;SDS011;36779;52.168;20.878;2022-07-06T09:21:10;1.10;;;0.70;;
50681;SDS011;36779;52.168;20.878;2022-07-06T09:24:00;2.30;;;0.90;;
50681;SDS011;36779;52.168;20.878;2022-07-06T09:26:55;1.40;;;0.90;;
50681;SDS011;36779;52.168;20.878;2022-07-06T09:29:46;2.50;;;0.70;;
50681;SDS011;36779;52.168;20.878;2022-07-06T09:32:39;3.20;;;0.80;;
50681;SDS011;36779;52.168;20.878;2022-07-06T09:35:29;1.80;;;0.50;;
50681;SDS011;36779;52.168;20.878;2022-07-06T09:38:19;1.20;;;0.60;;
50681;SDS011;36779;52.168;20.878;2022-07-06T09:41:08;1.40;;;0.60;;
50681;SDS011;36779;52.168;20.878;2022-07-06T09:43:58;0.90;;;0.50;;
50681;SDS011;36779;52.168;20.878;2022-07-06T09:46:49;1.40;;;0.60;;
50681;SDS011;36779;52.168;20.878;2022-07-06T09:49:38;3.00;;;0.80;;
50681;SDS011;36779;52.168;20.878;2022-07-06T09:52:28;3.30;;;0.70;;
50681;SDS011;36779;52.168;20.878;2022-07-06T09:55:22;0.80;;;0.50;;
50681;SDS011;36779;52.168;20.878;2022-07-06T09:58:11;2.70;;;0.80;;
50681;SDS011;36779;52.168;20.878;2022-07-06T10:01:00;2.70;;;0.60;;
50681;SDS011;36779;52.168;20.878;2022-07-06T10:03:52;2.60;;;0.50;;
50681;SDS011;36779;52.168;20.878;2022-07-06T10:06:41;1.80;;;0.50;;
50681;SDS011;36779;52.168;20.878;2022-07-06T10:09:31;2.20;;;0.60;;
50681;SDS011;36779;52.168;20.878;2022-07-06T10:12:21;0.90;;;0.50;;
50681;SDS011;36779;52.168;20.878;2022-07-06T10:15:18;1.40;;;0.40;;
50681;SDS011;36779;52.168;20.878;2022-07-06T10:18:09;0.40;;;0.40;;
50681;SDS011;36779;52.168;20.878;2022-07-06T10:20:58;1.20;;;0.40;;
50681;SDS011;36779;52.168;20.878;2022-07-06T10:23:52;1.80;;;0.40;;
50681;SDS011;36779;52.168;20.878;2022-07-06T10:26:42;3.30;;;0.40;;
50681;SDS011;36779;52.168;20.878;2022-07-06T10:29:31;0.80;;;0.40;;
50681;SDS011;36779;52.168;20.878;2022-07-06T10:32:20;0.70;;;0.50;;
50681;SDS011;36779;52.168;20.878;2022-07-06T10:35:10;1.90;;;0.50;;
50681;SDS011;36779;52.168;20.878;2022-07-06T10:38:03;2.20;;;0.50;;
50681;SDS011;36779;52.168;20.878;2022-07-06T10:40:53;2.50;;;0.60;;
50681;SDS011;36779;52.168;20.878;2022-07-06T10:43:50;0.70;;;0.50;;
50681;SDS011;36779;52.168;20.878;2022-07-06T10:46:38;2.20;;;0.50;;
50681;SDS011;36779;52.168;20.878;2022-07-06T10:49:27;1.50;;;0.50;;
50681;SDS011;36779;52.168;20.878;2022-07-06T10:52:48;1.90;;;0.50;;
50681;SDS011;36779;52.168;20.878;2022-07-06T10:55:39;1.20;;;0.50;;
50681;SDS011;36779;52.168;20.878;2022-07-06T10:58:41;3.90;;;0.70;;
50681;SDS011;36779;52.168;20.878;2022-07-06T11:01:37;1.10;;;0.50;;
50681;SDS011;36779;52.168;20.878;2022-07-06T11:04:34;1.30;;;0.50;;
50681;SDS011;36779;52.168;20.878;2022-07-06T11:07:23;2.30;;;0.40;;
50681;SDS011;36779;52.168;20.878;2022-07-06T11:10:19;1.20;;;0.70;;
50681;SDS011;36779;52.168;20.878;2022-07-06T11:13:13;1.30;;;0.50;;
50681;SDS011;36779;52.168;20.878;2022-07-06T11:16:14;2.30;;;0.50;;
50681;SDS011;36779;52.168;20.878;2022-07-06T11:19:06;1.30;;;0.60;;
50681;SDS011;36779;52.168;20.878;2022-07-06T11:21:57;1.20;;;0.50;;
50681;SDS011;36779;52.168;20.878;2022-07-06T11:24:54;2.00;;;0.50;;
50681;SDS011;36779;52.168;20.878;2022-07-06T11:27:42;1.60;;;0.40;;
50681;SDS011;36779;52.168;20.878;2022-07-06T11:30:33;2.00;;;0.50;;
50681;SDS011;36779;52.168;20.878;2022-07-06T11:33:28;1.00;;;0.30;;
50681;SDS011;36779;52.168;20.878;2022-07-06T11:36:18;1.60;;;0.50;;
50681;SDS011;36779;52.168;20.878;2022-07-06T11:39:09;1.60;;;0.50;;
50681;SDS011;36779;52.168;20.878;2022-07-06T11:41:59;1.10;;;0.40;;
50681;SDS011;36779;52.168;20.878;2022-07-06T11:44:54;0.80;;;0.40;;
50681;SDS011;36779;52.168;20.878;2022-07-06T11:47:43;2.50;;;0.50;;
50681;SDS011;36779;52.168;20.878;2022-07-06T11:50:32;1.60;;;0.50;;
50681;SDS011;36779;52.168;20.878;2022-07-06T11:53:22;1.10;;;0.40;;
50681;SDS011;36779;52.168;20.878;2022-07-06T11:56:11;2.10;;;0.60;;
50681;SDS011;36779;52.168;20.878;2022-07-06T11:59:02;2.00;;;0.60;;
50681;SDS011;36779;52.168;20.878;2022-07-06T12:01:58;2.50;;;0.60;;
50681;SDS011;36779;52.168;20.878;2022-07-06T12:04:47;1.10;;;0.40;;
50681;SDS011;36779;52.168;20.878;2022-07-06T12:07:38;1.30;;;0.70;;
50681;SDS011;36779;52.168;20.878;2022-07-06T12:10:31;1.70;;;0.60;;
50681;SDS011;36779;52.168;20.878;2022-07-06T12:13:25;1.20;;;0.60;;
50681;SDS011;36779;52.168;20.878;2022-07-06T12:16:15;2.20;;;0.50;;
50681;SDS011;36779;52.168;20.878;2022-07-06T12:19:05;1.20;;;0.50;;
50681;SDS011;36779;52.168;20.878;2022-07-06T12:21:55;1.70;;;0.50;;
50681;SDS011;36779;52.168;20.878;2022-07-06T12:24:44;0.40;;;0.40;;
50681;SDS011;36779;52.168;20.878;2022-07-06T12:27:34;0.90;;;0.40;;
50681;SDS011;36779;52.168;20.878;2022-07-06T12:30:23;3.70;;;0.40;;
50681;SDS011;36779;52.168;20.878;2022-07-06T12:33:13;2.10;;;0.60;;
50681;SDS011;36779;52.168;20.878;2022-07-06T12:36:09;1.00;;;0.50;;
50681;SDS011;36779;52.168;20.878;2022-07-06T12:39:01;1.20;;;0.50;;
50681;SDS011;36779;52.168;20.878;2022-07-06T12:44:53;1.50;;;0.50;;
50681;SDS011;36779;52.168;20.878;2022-07-06T12:47:48;1.80;;;0.50;;
50681;SDS011;36779;52.168;20.878;2022-07-06T12:50:47;1.80;;;0.50;;
50681;SDS011;36779;52.168;20.878;2022-07-06T12:53:35;1.00;;;0.50;;
50681;SDS011;36779;52.168;20.878;2022-07-06T12:56:24;2.20;;;0.40;;
50681;SDS011;36779;52.168;20.878;2022-07-06T12:59:20;1.60;;;0.60;;
50681;SDS011;36779;52.168;20.878;2022-07-06T13:02:05;2.00;;;0.70;;
50681;SDS011;36779;52.168;20.878;2022-07-06T13:04:57;2.30;;;0.50;;
50681;SDS011;36779;52.168;20.878;2022-07-06T13:07:49;0.70;;;0.50;;
50681;SDS011;36779;52.168;20.878;2022-07-06T13:10:38;1.80;;;0.50;;
50681;SDS011;36779;52.168;20.878;2022-07-06T13:13:31;0.70;;;0.40;;
50681;SDS011;36779;52.168;20.878;2022-07-06T13:16:20;1.60;;;0.40;;
50681;SDS011;36779;52.168;20.878;2022-07-06T13:19:19;2.60;;;0.50;;
50681;SDS011;36779;52.168;20.878;2022-07-06T13:22:11;3.30;;;0.60;;
50681;SDS011;36779;52.168;20.878;2022-07-06T13:25:00;1.30;;;0.50;;
50681;SDS011;36779;52.168;20.878;2022-07-06T13:27:49;3.30;;;0.60;;
50681;SDS011;36779;52.168;20.878;2022-07-06T13:30:40;3.30;;;0.50;;
50681;SDS011;36779;52.168;20.878;2022-07-06T13:33:28;1.30;;;0.60;;
50681;SDS011;36779;52.168;20.878;2022-07-06T13:36:17;3.30;;;0.70;;
50681;SDS011;36779;52.168;20.878;2022-07-06T13:38:56;1.50;;;0.50;;
50681;SDS011;36779;52.168;20.878;2022-07-06T13:41:46;1.90;;;0.50;;
50681;SDS011;36779;52.168;20.878;2022-07-06T13:44:35;1.30;;;0.50;;
50681;SDS011;36779;52.168;20.878;2022-07-06T13:47:24;1.80;;;0.60;;
50681;SDS011;36779;52.168;20.878;2022-07-06T13:50:13;2.40;;;0.70;;
50681;SDS011;36779;52.168;20.878;2022-07-06T13:53:02;0.60;;;0.50;;
50681;SDS011;36779;52.168;20.878;2022-07-06T13:55:52;1.00;;;0.50;;
50681;SDS011;36779;52.168;20.878;2022-07-06T13:58:41;2.30;;;0.50;;
50681;SDS011;36779;52.168;20.878;2022-07-06T14:01:32;1.90;;;0.50;;
50681;SDS011;36779;52.168;20.878;2022-07-06T14:04:23;1.20;;;0.70;;
50681;SDS011;36779;52.168;20.878;2022-07-06T14:07:12;6.20;;;1.00;;
50681;SDS011;36779;52.168;20.878;2022-07-06T14:10:07;2.20;;;0.60;;
50681;SDS011;36779;52.168;20.878;2022-07-06T14:12:59;2.10;;;0.60;;
50681;SDS011;36779;52.168;20.878;2022-07-06T14:15:48;2.30;;;0.60;;
50681;SDS011;36779;52.168;20.878;2022-07-06T14:18:37;2.60;;;0.70;;
50681;SDS011;36779;52.168;20.878;2022-07-06T14:21:26;1.70;;;0.60;;
50681;SDS011;36779;52.168;20.878;2022-07-06T14:24:15;1.70;;;0.50;;
50681;SDS011;36779;52.168;20.878;2022-07-06T14:27:06;2.20;;;0.70;;
50681;SDS011;36779;52.168;20.878;2022-07-06T14:29:55;2.30;;;0.60;;
50681;SDS011;36779;52.168;20.878;2022-07-06T14:32:44;2.50;;;0.70;;
50681;SDS011;36779;52.168;20.878;2022-07-06T14:35:33;2.10;;;0.70;;
50681;SDS011;36779;52.168;20.878;2022-07-06T14:38:16;2.40;;;0.60;;
50681;SDS011;36779;52.168;20.878;2022-07-06T14:41:05;2.20;;;0.70;;
50681;SDS011;36779;52.168;20.878;2022-07-06T14:43:54;1.90;;;0.70;;
50681;SDS011;36779;52.168;20.878;2022-07-06T14:46:43;2.70;;;0.70;;
50681;SDS011;36779;52.168;20.878;2022-07-06T14:49:32;2.40;;;0.70;;
50681;SDS011;36779;52.168;20.878;2022-07-06T14:52:21;1.20;;;0.60;;
50681;SDS011;36779;52.168;20.878;2022-07-06T14:55:10;2.00;;;0.70;;
50681;SDS011;36779;52.168;20.878;2022-07-06T14:58:02;1.40;;;0.70;;
50681;SDS011;36779;52.168;20.878;2022-07-06T15:00:52;1.80;;;0.90;;
50681;SDS011;36779;52.168;20.878;2022-07-06T15:03:50;5.10;;;1.00;;
50681;SDS011;36779;52.168;20.878;2022-07-06T15:06:39;1.30;;;0.80;;
50681;SDS011;36779;52.168;20.878;2022-07-06T15:09:42;4.00;;;1.00;;
50681;SDS011;36779;52.168;20.878;2022-07-06T15:12:31;4.00;;;0.90;;
50681;SDS011;36779;52.168;20.878;2022-07-06T15:15:20;2.30;;;1.00;;
50681;SDS011;36779;52.168;20.878;2022-07-06T15:18:29;4.70;;;1.30;;
50681;SDS011;36779;52.168;20.878;2022-07-06T15:21:18;2.60;;;1.10;;
50681;SDS011;36779;52.168;20.878;2022-07-06T15:24:08;2.30;;;1.10;;
50681;SDS011;36779;52.168;20.878;2022-07-06T15:26:57;4.10;;;0.90;;
50681;SDS011;36779;52.168;20.878;2022-07-06T15:29:47;4.10;;;1.40;;
50681;SDS011;36779;52.168;20.878;2022-07-06T15:32:36;3.50;;;1.20;;
50681;SDS011;36779;52.168;20.878;2022-07-06T15:35:26;5.20;;;1.10;;
50681;SDS011;36779;52.168;20.878;2022-07-06T15:38:15;4.00;;;1.20;;
50681;SDS011;36779;52.168;20.878;2022-07-06T15:41:06;4.50;;;1.20;;
50681;SDS011;36779;52.168;20.878;2022-07-06T15:43:55;7.30;;;1.30;;
50681;SDS011;36779;52.168;20.878;2022-07-06T15:46:45;5.30;;;1.40;;
50681;SDS011;36779;52.168;20.878;2022-07-06T15:49:37;4.40;;;1.30;;
50681;SDS011;36779;52.168;20.878;2022-07-06T15:52:26;5.30;;;1.60;;
50681;SDS011;36779;52.168;20.878;2022-07-06T15:55:16;10.40;;;1.40;;
50681;SDS011;36779;52.168;20.878;2022-07-06T15:58:05;3.40;;;1.20;;
50681;SDS011;36779;52.168;20.878;2022-07-06T16:00:54;1.90;;;1.00;;
50681;SDS011;36779;52.168;20.878;2022-07-06T16:03:44;2.10;;;1.00;;
50681;SDS011;36779;52.168;20.878;2022-07-06T16:06:33;1.50;;;0.90;;
50681;SDS011;36779;52.168;20.878;2022-07-06T16:09:43;2.30;;;1.40;;
50681;SDS011;36779;52.168;20.878;2022-07-06T16:12:32;1.90;;;1.20;;
50681;SDS011;36779;52.168;20.878;2022-07-06T16:15:21;2.10;;;1.00;;
50681;SDS011;36779;52.168;20.878;2022-07-06T16:18:10;4.10;;;0.90;;
50681;SDS011;36779;52.168;20.878;2022-07-06T16:21:00;3.90;;;1.00;;
50681;SDS011;36779;52.168;20.878;2022-07-06T16:23:49;2.30;;;1.10;;
50681;SDS011;36779;52.168;20.878;2022-07-06T16:26:28;4.40;;;1.30;;
50681;SDS011;36779;52.168;20.878;2022-07-06T16:29:21;4.60;;;1.00;;
50681;SDS011;36779;52.168;20.878;2022-07-06T16:32:10;5.70;;;1.30;;
50681;SDS011;36779;52.168;20.878;2022-07-06T16:35:00;2.80;;;1.20;;
50681;SDS011;36779;52.168;20.878;2022-07-06T16:37:50;4.20;;;1.40;;
50681;SDS011;36779;52.168;20.878;2022-07-06T16:40:41;2.80;;;1.20;;
50681;SDS011;36779;52.168;20.878;2022-07-06T16:43:31;3.50;;;1.20;;
50681;SDS011;36779;52.168;20.878;2022-07-06T16:46:10;1.90;;;1.10;;
50681;SDS011;36779;52.168;20.878;2022-07-06T16:48:59;2.10;;;1.10;;
50681;SDS011;36779;52.168;20.878;2022-07-06T16:54:38;2.10;;;1.40;;
50681;SDS011;36779;52.168;20.878;2022-07-06T16:57:28;3.30;;;1.00;;
50681;SDS011;36779;52.168;20.878;2022-07-06T17:00:17;2.40;;;1.30;;
50681;SDS011;36779;52.168;20.878;2022-07-06T17:03:06;2.60;;;1.30;;